RYR6FU EPKK-LBSF
Flight info
| Callsign | RYR6FU |
|---|---|
| Flight time | 1h 19m |
| Altitude | 37000 |
| Route | BABKO DCT NIDOK DCT AMRAX DCT PARAK DCT PELOV DCT NEPOS DCT RAVAK DCT NISVA |
| Aircraft | B738/M-SDFGIJ1LRWY/SB1 |
Departure
| Time | 2026-05-04 04:13 |
|---|---|
| Airport | Kraków John Paul II International Airport (EPKK) |
Arrival
| Time | 2026-05-04 05:33 |
|---|---|
| Airport | Sofia Airport (LBSF) |
| Time | Latitude | Longitude | Altitude | Speed | Heading |
|---|---|---|---|---|---|
| 2026-05-04 03:36 | 50.07482 | 19.80139 | 797 ft | 0 kts | 167° |
| 2026-05-04 04:10 | 50.07465 | 19.80145 | 797 ft | 4 kts | 168° |
| 2026-05-04 04:10 | 50.07426 | 19.80178 | 797 ft | 8 kts | 111° |
| 2026-05-04 04:11 | 50.07437 | 19.80289 | 797 ft | 12 kts | 78° |
| 2026-05-04 04:11 | 50.07487 | 19.80385 | 797 ft | 13 kts | 18° |
| 2026-05-04 04:11 | 50.07600 | 19.80418 | 797 ft | 17 kts | 349° |
| 2026-05-04 04:11 | 50.07717 | 19.80380 | 797 ft | 17 kts | 348° |
| 2026-05-04 04:12 | 50.07832 | 19.80343 | 797 ft | 16 kts | 349° |
| 2026-05-04 04:12 | 50.07940 | 19.80305 | 797 ft | 15 kts | 347° |
| 2026-05-04 04:12 | 50.08009 | 19.80244 | 797 ft | 10 kts | 288° |
| 2026-05-04 04:12 | 50.07994 | 19.80067 | 797 ft | 30 kts | 257° |
| 2026-05-04 04:13 | 50.07896 | 19.79367 | 797 ft | 100 kts | 258° |
| 2026-05-04 04:13 | 50.07704 | 19.77992 | 798 ft | 157 kts | 258° |
| 2026-05-04 04:13 | 50.07465 | 19.76236 | 1326 ft | 167 kts | 258° |
| 2026-05-04 04:13 | 50.07236 | 19.74458 | 1959 ft | 176 kts | 257° |
| 2026-05-04 04:14 | 50.06978 | 19.72510 | 2443 ft | 196 kts | 256° |
| 2026-05-04 04:14 | 50.06671 | 19.70318 | 3110 ft | 211 kts | 254° |
| 2026-05-04 04:14 | 50.06141 | 19.68164 | 3796 ft | 224 kts | 235° |
| 2026-05-04 04:14 | 50.05079 | 19.66358 | 4572 ft | 234 kts | 217° |
| 2026-05-04 04:15 | 50.03646 | 19.65142 | 5370 ft | 244 kts | 197° |
| 2026-05-04 04:15 | 50.01928 | 19.64946 | 6044 ft | 261 kts | 173° |
| 2026-05-04 04:15 | 50.00145 | 19.65532 | 6927 ft | 269 kts | 168° |
| 2026-05-04 04:15 | 49.98307 | 19.66057 | 7872 ft | 273 kts | 181° |
| 2026-05-04 04:16 | 49.96456 | 19.65479 | 8837 ft | 275 kts | 201° |
| 2026-05-04 04:16 | 49.94706 | 19.64335 | 9660 ft | 280 kts | 204° |
| 2026-05-04 04:16 | 49.92904 | 19.63166 | 10481 ft | 286 kts | 202° |
| 2026-05-04 04:16 | 49.90994 | 19.62062 | 11026 ft | 303 kts | 200° |
| 2026-05-04 04:17 | 49.88945 | 19.60975 | 11603 ft | 320 kts | 199° |
| 2026-05-04 04:17 | 49.86780 | 19.59872 | 12116 ft | 336 kts | 199° |
| 2026-05-04 04:17 | 49.84502 | 19.58723 | 12746 ft | 349 kts | 199° |
| 2026-05-04 04:17 | 49.82186 | 19.57557 | 13633 ft | 354 kts | 199° |
| 2026-05-04 04:18 | 49.79854 | 19.56379 | 14507 ft | 358 kts | 199° |
| 2026-05-04 04:18 | 49.77482 | 19.55180 | 15388 ft | 363 kts | 199° |
| 2026-05-04 04:18 | 49.75103 | 19.53975 | 16206 ft | 367 kts | 199° |
| 2026-05-04 04:18 | 49.72647 | 19.52732 | 17043 ft | 372 kts | 199° |
| 2026-05-04 04:19 | 49.70187 | 19.51488 | 17860 ft | 377 kts | 199° |
| 2026-05-04 04:19 | 49.67697 | 19.50230 | 18654 ft | 381 kts | 199° |
| 2026-05-04 04:19 | 49.65173 | 19.48962 | 19402 ft | 387 kts | 199° |
| 2026-05-04 04:19 | 49.62586 | 19.47792 | 20136 ft | 393 kts | 195° |
| 2026-05-04 04:20 | 49.59906 | 19.46967 | 20894 ft | 397 kts | 189° |
| 2026-05-04 04:20 | 49.57114 | 19.46503 | 21595 ft | 404 kts | 185° |
| 2026-05-04 04:20 | 49.54299 | 19.46241 | 22300 ft | 409 kts | 184° |
| 2026-05-04 04:20 | 49.51482 | 19.46063 | 22970 ft | 414 kts | 183° |
| 2026-05-04 04:21 | 49.48573 | 19.45906 | 23649 ft | 419 kts | 183° |
| 2026-05-04 04:21 | 49.45678 | 19.45750 | 24311 ft | 423 kts | 183° |
| 2026-05-04 04:21 | 49.42717 | 19.45581 | 24935 ft | 428 kts | 183° |
| 2026-05-04 04:21 | 49.39715 | 19.45398 | 25559 ft | 433 kts | 183° |
| 2026-05-04 04:22 | 49.36710 | 19.45207 | 26128 ft | 438 kts | 184° |
| 2026-05-04 04:22 | 49.33670 | 19.45007 | 26714 ft | 443 kts | 184° |
| 2026-05-04 04:22 | 49.30569 | 19.44800 | 27359 ft | 446 kts | 184° |
| 2026-05-04 04:22 | 49.27457 | 19.44589 | 27883 ft | 451 kts | 184° |
| 2026-05-04 04:23 | 49.24303 | 19.44374 | 28429 ft | 456 kts | 184° |
| 2026-05-04 04:23 | 49.21144 | 19.44158 | 29051 ft | 458 kts | 184° |
| 2026-05-04 04:23 | 49.17936 | 19.43938 | 29569 ft | 463 kts | 184° |
| 2026-05-04 04:23 | 49.14700 | 19.43717 | 30261 ft | 462 kts | 184° |
| 2026-05-04 04:24 | 49.11531 | 19.43500 | 31048 ft | 459 kts | 184° |
| 2026-05-04 04:24 | 49.08338 | 19.43282 | 31706 ft | 459 kts | 183° |
| 2026-05-04 04:24 | 49.05173 | 19.43065 | 32342 ft | 458 kts | 183° |
| 2026-05-04 04:24 | 49.02007 | 19.42848 | 33052 ft | 455 kts | 183° |
| 2026-05-04 04:25 | 48.98864 | 19.42634 | 33627 ft | 455 kts | 183° |
| 2026-05-04 04:25 | 48.95712 | 19.42418 | 34163 ft | 456 kts | 183° |
| 2026-05-04 04:25 | 48.92550 | 19.42203 | 34772 ft | 454 kts | 183° |
| 2026-05-04 04:25 | 48.89420 | 19.41989 | 35305 ft | 452 kts | 183° |
| 2026-05-04 04:26 | 48.86255 | 19.41774 | 35769 ft | 452 kts | 183° |
| 2026-05-04 04:26 | 48.83146 | 19.41564 | 36306 ft | 449 kts | 184° |
| 2026-05-04 04:26 | 48.80034 | 19.41352 | 36708 ft | 450 kts | 184° |
| 2026-05-04 04:26 | 48.76938 | 19.41143 | 37161 ft | 450 kts | 184° |
| 2026-05-04 04:27 | 48.70675 | 19.40718 | 37120 ft | 448 kts | 184° |
| 2026-05-04 04:27 | 48.64448 | 19.40298 | 37118 ft | 448 kts | 184° |
| 2026-05-04 04:28 | 48.58256 | 19.39881 | 37120 ft | 449 kts | 184° |
| 2026-05-04 04:28 | 48.51999 | 19.39461 | 37121 ft | 449 kts | 184° |
| 2026-05-04 04:29 | 48.45750 | 19.39042 | 37118 ft | 450 kts | 183° |
| 2026-05-04 04:29 | 48.39535 | 19.38627 | 37124 ft | 450 kts | 183° |
| 2026-05-04 04:30 | 48.33302 | 19.38212 | 37126 ft | 450 kts | 183° |
| 2026-05-04 04:30 | 48.27036 | 19.37795 | 37126 ft | 451 kts | 183° |
| 2026-05-04 04:31 | 48.20778 | 19.37380 | 37126 ft | 450 kts | 183° |
| 2026-05-04 04:31 | 48.14525 | 19.36968 | 37126 ft | 451 kts | 183° |
| 2026-05-04 04:32 | 48.08260 | 19.37187 | 37126 ft | 451 kts | 173° |
| 2026-05-04 04:32 | 48.02141 | 19.38997 | 37129 ft | 452 kts | 166° |
| 2026-05-04 04:33 | 47.96079 | 19.41417 | 37128 ft | 452 kts | 164° |
| 2026-05-04 04:33 | 47.90017 | 19.43918 | 37127 ft | 452 kts | 164° |
| 2026-05-04 04:34 | 47.83957 | 19.46361 | 37128 ft | 453 kts | 165° |
| 2026-05-04 04:34 | 47.77878 | 19.48758 | 37126 ft | 453 kts | 165° |
| 2026-05-04 04:35 | 47.71806 | 19.51123 | 37130 ft | 454 kts | 165° |
| 2026-05-04 04:35 | 47.65707 | 19.53482 | 37131 ft | 454 kts | 165° |
| 2026-05-04 04:36 | 47.59575 | 19.55845 | 37130 ft | 455 kts | 165° |
| 2026-05-04 04:36 | 47.53465 | 19.58191 | 37133 ft | 455 kts | 165° |
| 2026-05-04 04:37 | 47.41239 | 19.62871 | 37131 ft | 455 kts | 165° |
| 2026-05-04 04:38 | 47.35095 | 19.65213 | 37128 ft | 455 kts | 165° |
| 2026-05-04 04:38 | 47.28982 | 19.67537 | 37129 ft | 455 kts | 165° |
| 2026-05-04 04:39 | 47.22869 | 19.69857 | 37130 ft | 455 kts | 165° |
| 2026-05-04 04:39 | 47.16731 | 19.72181 | 37131 ft | 457 kts | 165° |
| 2026-05-04 04:40 | 47.10577 | 19.74505 | 37132 ft | 457 kts | 165° |
| 2026-05-04 04:40 | 47.04459 | 19.76810 | 37131 ft | 455 kts | 165° |
| 2026-05-04 04:41 | 46.98340 | 19.79110 | 37131 ft | 455 kts | 164° |
| 2026-05-04 04:41 | 46.92218 | 19.81406 | 37130 ft | 457 kts | 164° |
| 2026-05-04 04:42 | 46.86038 | 19.83718 | 37128 ft | 457 kts | 164° |
| 2026-05-04 04:42 | 46.79890 | 19.86013 | 37133 ft | 458 kts | 164° |
| 2026-05-04 04:43 | 46.73701 | 19.88317 | 37128 ft | 458 kts | 164° |
| 2026-05-04 04:43 | 46.67522 | 19.90613 | 37127 ft | 458 kts | 164° |
| 2026-05-04 04:44 | 46.61371 | 19.92891 | 37131 ft | 459 kts | 164° |
| 2026-05-04 04:44 | 46.55220 | 19.95165 | 37131 ft | 460 kts | 164° |
| 2026-05-04 04:45 | 46.49020 | 19.97452 | 37126 ft | 460 kts | 164° |
| 2026-05-04 04:47 | 46.27338 | 20.05407 | 37125 ft | 462 kts | 164° |
| 2026-05-04 04:47 | 46.21131 | 20.07671 | 37128 ft | 462 kts | 164° |
| 2026-05-04 04:48 | 46.14964 | 20.10327 | 37130 ft | 460 kts | 157° |
| 2026-05-04 04:49 | 46.00415 | 20.19598 | 37126 ft | 460 kts | 153° |
| 2026-05-04 04:49 | 45.94618 | 20.23407 | 37129 ft | 460 kts | 153° |
| 2026-05-04 04:50 | 45.88777 | 20.27199 | 37130 ft | 460 kts | 153° |
| 2026-05-04 04:50 | 45.82928 | 20.30965 | 37131 ft | 461 kts | 153° |
| 2026-05-04 04:51 | 45.77133 | 20.34679 | 37129 ft | 460 kts | 153° |
| 2026-05-04 04:51 | 45.71270 | 20.38422 | 37128 ft | 460 kts | 153° |
| 2026-05-04 04:52 | 45.65423 | 20.42147 | 37129 ft | 461 kts | 153° |
| 2026-05-04 04:52 | 45.59572 | 20.45866 | 37130 ft | 460 kts | 153° |
| 2026-05-04 04:53 | 45.53738 | 20.49566 | 37129 ft | 460 kts | 153° |
| 2026-05-04 04:53 | 45.47880 | 20.53272 | 37127 ft | 461 kts | 153° |
| 2026-05-04 04:54 | 45.42030 | 20.56965 | 37131 ft | 461 kts | 153° |
| 2026-05-04 04:54 | 45.36208 | 20.60632 | 37129 ft | 462 kts | 153° |
| 2026-05-04 04:55 | 45.30335 | 20.64321 | 37129 ft | 462 kts | 153° |
| 2026-05-04 04:55 | 45.24432 | 20.68020 | 37130 ft | 462 kts | 154° |
| 2026-05-04 04:56 | 45.18555 | 20.71696 | 37128 ft | 462 kts | 154° |
| 2026-05-04 04:56 | 45.12685 | 20.75358 | 37136 ft | 462 kts | 154° |
| 2026-05-04 04:57 | 45.06806 | 20.79018 | 37145 ft | 462 kts | 153° |
| 2026-05-04 04:57 | 45.00938 | 20.82665 | 37148 ft | 463 kts | 154° |
| 2026-05-04 04:58 | 44.95161 | 20.86574 | 37141 ft | 461 kts | 147° |
| 2026-05-04 04:58 | 44.89808 | 20.91466 | 37146 ft | 457 kts | 141° |
| 2026-05-04 04:59 | 44.84663 | 20.96742 | 37146 ft | 457 kts | 140° |
| 2026-05-04 04:59 | 44.79580 | 21.02023 | 37153 ft | 456 kts | 140° |
| 2026-05-04 05:00 | 44.74435 | 21.07306 | 37156 ft | 458 kts | 140° |
| 2026-05-04 05:01 | 44.66727 | 21.15123 | 37151 ft | 458 kts | 140° |
| 2026-05-04 05:01 | 44.61538 | 21.20348 | 37144 ft | 458 kts | 140° |
| 2026-05-04 05:02 | 44.56370 | 21.25532 | 37143 ft | 457 kts | 140° |
| 2026-05-04 05:02 | 44.51227 | 21.30680 | 37146 ft | 458 kts | 140° |
| 2026-05-04 05:03 | 44.46040 | 21.35862 | 37138 ft | 458 kts | 140° |
| 2026-05-04 05:04 | 44.35664 | 21.46191 | 37136 ft | 459 kts | 140° |
| 2026-05-04 05:04 | 44.30452 | 21.51360 | 37134 ft | 459 kts | 140° |
| 2026-05-04 05:06 | 44.12191 | 21.69381 | 34648 ft | 460 kts | 140° |
| 2026-05-04 05:06 | 44.09568 | 21.71960 | 34037 ft | 463 kts | 140° |
| 2026-05-04 05:06 | 44.06929 | 21.74554 | 33401 ft | 465 kts | 140° |
| 2026-05-04 05:07 | 44.04295 | 21.77139 | 32763 ft | 467 kts | 140° |
| 2026-05-04 05:07 | 44.01656 | 21.79728 | 32128 ft | 469 kts | 139° |
| 2026-05-04 05:07 | 43.98983 | 21.82346 | 31487 ft | 471 kts | 139° |
| 2026-05-04 05:09 | 43.77528 | 22.03222 | 26356 ft | 471 kts | 138° |
| 2026-05-04 05:09 | 43.74822 | 22.05839 | 25710 ft | 469 kts | 138° |
| 2026-05-04 05:10 | 43.72166 | 22.08406 | 25077 ft | 468 kts | 138° |
| 2026-05-04 05:10 | 43.69531 | 22.10952 | 24442 ft | 466 kts | 138° |
| 2026-05-04 05:10 | 43.66881 | 22.13509 | 23812 ft | 464 kts | 138° |
| 2026-05-04 05:10 | 43.64226 | 22.16069 | 23166 ft | 462 kts | 138° |
| 2026-05-04 05:11 | 43.61631 | 22.18567 | 22526 ft | 460 kts | 138° |
| 2026-05-04 05:11 | 43.58997 | 22.21099 | 21885 ft | 458 kts | 138° |
| 2026-05-04 05:11 | 43.56417 | 22.23578 | 21258 ft | 455 kts | 138° |
| 2026-05-04 05:11 | 43.53827 | 22.26064 | 20608 ft | 452 kts | 139° |
| 2026-05-04 05:12 | 43.51250 | 22.28533 | 19976 ft | 450 kts | 139° |
| 2026-05-04 05:12 | 43.48724 | 22.30953 | 19354 ft | 447 kts | 139° |
| 2026-05-04 05:12 | 43.46171 | 22.33395 | 18703 ft | 443 kts | 139° |
| 2026-05-04 05:12 | 43.43660 | 22.35798 | 18076 ft | 440 kts | 139° |
| 2026-05-04 05:13 | 43.41144 | 22.38202 | 17450 ft | 437 kts | 139° |
| 2026-05-04 05:13 | 43.38680 | 22.40553 | 17173 ft | 425 kts | 139° |
| 2026-05-04 05:13 | 43.36304 | 22.42809 | 17143 ft | 407 kts | 139° |
| 2026-05-04 05:13 | 43.34021 | 22.44972 | 17138 ft | 390 kts | 139° |
| 2026-05-04 05:14 | 43.31855 | 22.47025 | 17147 ft | 374 kts | 139° |
| 2026-05-04 05:14 | 43.29742 | 22.49030 | 17102 ft | 359 kts | 138° |
| 2026-05-04 05:14 | 43.27723 | 22.50954 | 16764 ft | 355 kts | 138° |
| 2026-05-04 05:14 | 43.25713 | 22.52877 | 16317 ft | 355 kts | 138° |
| 2026-05-04 05:15 | 43.23685 | 22.54815 | 15855 ft | 354 kts | 138° |
| 2026-05-04 05:15 | 43.21674 | 22.56732 | 15402 ft | 353 kts | 138° |
| 2026-05-04 05:15 | 43.19668 | 22.58637 | 14950 ft | 352 kts | 139° |
| 2026-05-04 05:15 | 43.17648 | 22.60550 | 14492 ft | 351 kts | 139° |
| 2026-05-04 05:16 | 43.15661 | 22.62428 | 14081 ft | 348 kts | 139° |
| 2026-05-04 05:16 | 43.13677 | 22.64300 | 13830 ft | 351 kts | 139° |
| 2026-05-04 05:16 | 43.11605 | 22.66267 | 13640 ft | 370 kts | 140° |
| 2026-05-04 05:16 | 43.09466 | 22.68296 | 13455 ft | 382 kts | 140° |
| 2026-05-04 05:17 | 43.07233 | 22.70409 | 13266 ft | 392 kts | 140° |
| 2026-05-04 05:17 | 43.05013 | 22.72495 | 13163 ft | 390 kts | 141° |
| 2026-05-04 05:17 | 43.02770 | 22.74594 | 13148 ft | 390 kts | 140° |
| 2026-05-04 05:17 | 43.00528 | 22.76690 | 13148 ft | 389 kts | 140° |
| 2026-05-04 05:18 | 42.98304 | 22.78797 | 13148 ft | 390 kts | 138° |
| 2026-05-04 05:18 | 42.96263 | 22.81181 | 13146 ft | 384 kts | 130° |
| 2026-05-04 05:18 | 42.94446 | 22.83822 | 13153 ft | 381 kts | 126° |
| 2026-05-04 05:18 | 42.92743 | 22.86571 | 13101 ft | 381 kts | 124° |
| 2026-05-04 05:19 | 42.91062 | 22.89378 | 12726 ft | 378 kts | 123° |
| 2026-05-04 05:19 | 42.89419 | 22.92111 | 12231 ft | 374 kts | 124° |
| 2026-05-04 05:19 | 42.87759 | 22.94829 | 11721 ft | 370 kts | 124° |
| 2026-05-04 05:19 | 42.86118 | 22.97478 | 11210 ft | 366 kts | 125° |
| 2026-05-04 05:20 | 42.84477 | 23.00099 | 10714 ft | 363 kts | 125° |
| 2026-05-04 05:20 | 42.82835 | 23.02707 | 10209 ft | 359 kts | 126° |
| 2026-05-04 05:20 | 42.81230 | 23.05247 | 9980 ft | 347 kts | 126° |
| 2026-05-04 05:20 | 42.79700 | 23.07656 | 9956 ft | 331 kts | 125° |
| 2026-05-04 05:21 | 42.78225 | 23.09978 | 9963 ft | 315 kts | 125° |
| 2026-05-04 05:21 | 42.76824 | 23.12186 | 9956 ft | 301 kts | 124° |
| 2026-05-04 05:21 | 42.75483 | 23.14306 | 9917 ft | 288 kts | 124° |
| 2026-05-04 05:21 | 42.74208 | 23.16328 | 9681 ft | 285 kts | 124° |
| 2026-05-04 05:22 | 42.72918 | 23.18379 | 9376 ft | 284 kts | 124° |
| 2026-05-04 05:22 | 42.71630 | 23.20424 | 9062 ft | 284 kts | 125° |
| 2026-05-04 05:22 | 42.70333 | 23.22472 | 8674 ft | 285 kts | 125° |
| 2026-05-04 05:22 | 42.69040 | 23.24509 | 8291 ft | 285 kts | 125° |
| 2026-05-04 05:23 | 42.67764 | 23.26513 | 8053 ft | 283 kts | 126° |
| 2026-05-04 05:23 | 42.66469 | 23.28547 | 7802 ft | 283 kts | 126° |
| 2026-05-04 05:23 | 42.65178 | 23.30576 | 7536 ft | 283 kts | 126° |
| 2026-05-04 05:23 | 42.63903 | 23.32577 | 7323 ft | 277 kts | 126° |
| 2026-05-04 05:24 | 42.62660 | 23.34540 | 7113 ft | 272 kts | 124° |
| 2026-05-04 05:24 | 42.61659 | 23.36649 | 6898 ft | 261 kts | 107° |
| 2026-05-04 05:24 | 42.61282 | 23.38975 | 6704 ft | 249 kts | 90° |
| 2026-05-04 05:24 | 42.61208 | 23.41285 | 6499 ft | 244 kts | 87° |
| 2026-05-04 05:25 | 42.61141 | 23.43591 | 6290 ft | 241 kts | 88° |
| 2026-05-04 05:25 | 42.61034 | 23.45839 | 6037 ft | 240 kts | 90° |
| 2026-05-04 05:25 | 42.60901 | 23.48090 | 5782 ft | 239 kts | 90° |
| 2026-05-04 05:25 | 42.60761 | 23.50352 | 5521 ft | 238 kts | 90° |
| 2026-05-04 05:26 | 42.60624 | 23.52583 | 5265 ft | 238 kts | 90° |
| 2026-05-04 05:26 | 42.60488 | 23.54794 | 4995 ft | 237 kts | 91° |
| 2026-05-04 05:26 | 42.60350 | 23.57023 | 4729 ft | 237 kts | 91° |
| 2026-05-04 05:26 | 42.60211 | 23.59250 | 4466 ft | 237 kts | 91° |
| 2026-05-04 05:27 | 42.60188 | 23.61447 | 4301 ft | 229 kts | 80° |
| 2026-05-04 05:28 | 42.67726 | 23.64626 | 3940 ft | 172 kts | 312° |
| 2026-05-04 05:29 | 42.68308 | 23.63189 | 3940 ft | 174 kts | 290° |
| 2026-05-04 05:29 | 42.68477 | 23.61550 | 3937 ft | 176 kts | 276° |
| 2026-05-04 05:29 | 42.68542 | 23.59887 | 3928 ft | 176 kts | 277° |
| 2026-05-04 05:29 | 42.68639 | 23.58224 | 3892 ft | 177 kts | 278° |
| 2026-05-04 05:31 | 42.69304 | 23.47283 | 2277 ft | 148 kts | 277° |
| 2026-05-04 05:31 | 42.69396 | 23.45906 | 2071 ft | 146 kts | 275° |
| 2026-05-04 05:32 | 42.69480 | 23.44545 | 1861 ft | 145 kts | 275° |
| 2026-05-04 05:32 | 42.69559 | 23.43184 | 1731 ft | 131 kts | 275° |
| 2026-05-04 05:32 | 42.69614 | 23.42262 | 1732 ft | 67 kts | 275° |
| 2026-05-04 05:33 | 42.69619 | 23.41695 | 1735 ft | 18 kts | 258° |
| 2026-05-04 05:33 | 42.69575 | 23.41541 | 1738 ft | 16 kts | 246° |
| 2026-05-04 05:33 | 42.69528 | 23.41405 | 1740 ft | 15 kts | 245° |
| 2026-05-04 05:33 | 42.69489 | 23.41285 | 1741 ft | 11 kts | 249° |
| 2026-05-04 05:34 | 42.69442 | 23.41209 | 1742 ft | 10 kts | 195° |
| 2026-05-04 05:34 | 42.69354 | 23.41184 | 1743 ft | 15 kts | 192° |
| 2026-05-04 05:34 | 42.69238 | 23.41151 | 1744 ft | 17 kts | 192° |
| 2026-05-04 05:34 | 42.69144 | 23.41120 | 1745 ft | 10 kts | 207° |
| 2026-05-04 05:35 | 42.69094 | 23.41059 | 1746 ft | 8 kts | 192° |
| 2026-05-04 05:35 | 42.69040 | 23.41074 | 1747 ft | 6 kts | 163° |
| 2026-05-04 05:35 | 42.69022 | 23.41081 | 1748 ft | 0 kts | 163° |